createdAt,value
2023-02-08T00:02:39.605Z,-0.01
2023-02-08T00:08:01.358Z,-0.09
2023-02-08T00:13:23.386Z,-0.12
2023-02-08T00:18:45.070Z,-0.14
2023-02-08T00:24:06.945Z,-0.35
2023-02-08T00:29:28.664Z,-0.21
2023-02-08T00:34:50.454Z,-0.37
2023-02-08T00:40:12.693Z,-0.36
2023-02-08T00:45:34.380Z,-0.31
2023-02-08T00:50:59.046Z,-0.40
2023-02-08T00:56:20.730Z,-0.33
2023-02-08T01:01:42.666Z,-0.39
2023-02-08T01:07:05.370Z,-0.46
2023-02-08T01:12:27.078Z,-0.39
2023-02-08T01:17:54.125Z,-0.50
2023-02-08T01:23:15.835Z,-0.58
2023-02-08T01:28:38.172Z,-0.76
2023-02-08T01:34:00.461Z,-0.62
2023-02-08T01:39:22.168Z,-0.67
2023-02-08T01:45:11.746Z,-0.67
2023-02-08T01:50:42.019Z,-0.62
2023-02-08T01:56:08.342Z,-0.80
2023-02-08T02:01:31.845Z,-0.70
2023-02-08T02:06:57.588Z,-0.71
2023-02-08T02:12:21.107Z,-0.80
2023-02-08T02:17:43.025Z,-0.76
2023-02-08T02:23:23.141Z,-0.85
2023-02-08T02:29:03.779Z,-0.88
2023-02-08T02:34:34.534Z,-0.99
2023-02-08T02:40:03.170Z,-1.11
2023-02-08T02:45:32.498Z,-1.26
2023-02-08T02:51:17.032Z,-1.12
2023-02-08T02:56:46.031Z,-1.17
2023-02-08T03:02:08.850Z,-1.16
2023-02-08T03:07:56.351Z,-1.05
2023-02-08T03:13:47.639Z,-1.23
2023-02-08T03:19:27.545Z,-1.27
2023-02-08T03:24:54.814Z,-1.07
2023-02-08T03:30:34.157Z,-1.17
2023-02-08T03:36:06.464Z,-1.32
2023-02-08T03:41:38.794Z,-1.16
2023-02-08T03:47:15.335Z,-1.21
2023-02-08T03:52:37.652Z,-1.38
2023-02-08T03:58:06.652Z,-1.25
2023-02-08T04:03:30.619Z,-1.30
2023-02-08T04:08:52.871Z,-1.21
2023-02-08T04:14:14.641Z,-1.21
2023-02-08T04:19:36.460Z,-1.09
2023-02-08T04:24:58.183Z,-1.15
2023-02-08T04:30:19.931Z,-1.30
2023-02-08T04:35:42.439Z,-1.42
2023-02-08T04:41:04.340Z,-1.39
2023-02-08T04:46:26.167Z,-1.42
2023-02-08T04:51:47.947Z,-1.44
2023-02-08T04:57:14.035Z,-1.38
2023-02-08T05:02:35.758Z,-1.35
2023-02-08T05:07:57.476Z,-1.50
2023-02-08T05:13:19.178Z,-1.46
2023-02-08T05:18:42.151Z,-1.44
2023-02-08T05:24:03.946Z,-1.33
2023-02-08T05:29:25.859Z,-1.43
2023-02-08T05:34:47.850Z,-1.60
2023-02-08T05:40:10.424Z,-1.52
2023-02-08T05:45:32.222Z,-1.54
2023-02-08T05:50:54.336Z,-1.67
2023-02-08T05:56:16.068Z,-1.58
2023-02-08T06:01:37.793Z,-1.55
2023-02-08T06:06:59.501Z,-1.50
2023-02-08T06:12:21.188Z,-1.60
2023-02-08T06:17:42.909Z,-1.77
2023-02-08T06:23:04.730Z,-1.87
2023-02-08T06:28:26.626Z,-1.75
2023-02-08T06:33:48.369Z,-1.68
2023-02-08T06:39:10.104Z,-1.75
2023-02-08T06:44:31.822Z,-1.67
2023-02-08T06:49:54.044Z,-1.83
2023-02-08T06:55:15.796Z,-1.57
2023-02-08T07:00:39.182Z,-1.65
2023-02-08T07:06:05.727Z,-1.52
2023-02-08T07:11:27.667Z,-1.63
2023-02-08T07:16:49.415Z,-1.44
2023-02-08T07:22:11.195Z,-1.58
2023-02-08T07:27:33.340Z,-1.46
2023-02-08T07:32:55.235Z,-1.55
2023-02-08T07:38:20.624Z,-1.46
2023-02-08T07:43:43.210Z,-1.40
2023-02-08T07:49:04.992Z,-1.24
2023-02-08T07:54:27.229Z,-1.24
2023-02-08T07:59:48.991Z,-1.48
2023-02-08T08:05:11.380Z,-1.30
2023-02-08T08:10:33.124Z,-1.23
2023-02-08T08:15:54.895Z,-1.16
2023-02-08T08:21:16.797Z,-1.18
2023-02-08T08:26:38.590Z,-1.22
2023-02-08T08:32:00.384Z,-0.87
2023-02-08T08:37:22.131Z,-0.61
2023-02-08T08:42:43.917Z,-0.67
2023-02-08T08:48:05.984Z,-0.41
2023-02-08T08:53:27.875Z,-0.42
2023-02-08T08:58:49.683Z,-0.54
2023-02-08T09:04:11.890Z,-0.39
2023-02-08T09:09:33.918Z,-0.45
2023-02-08T09:14:55.623Z,-0.43
2023-02-08T09:20:17.946Z,-0.20
2023-02-08T09:25:40.113Z,-0.30
2023-02-08T09:31:37.673Z,-0.22
2023-02-08T09:36:59.458Z,0.11
2023-02-08T09:42:31.650Z,0.09
2023-02-08T09:48:14.488Z,0.15
2023-02-08T09:53:44.044Z,0.32
2023-02-08T09:59:12.860Z,0.41
2023-02-08T10:04:43.410Z,0.61
2023-02-08T10:10:15.358Z,0.48
2023-02-08T10:16:13.143Z,0.82
2023-02-08T10:21:55.814Z,0.80
2023-02-08T10:27:28.911Z,0.87
2023-02-08T10:32:59.453Z,1.06
2023-02-08T10:38:21.128Z,1.25
2023-02-08T10:43:51.729Z,1.21
2023-02-08T10:49:35.023Z,1.43
2023-02-08T10:54:58.560Z,1.53
2023-02-08T11:00:26.999Z,1.63
2023-02-08T11:05:49.627Z,1.76
2023-02-08T11:11:11.576Z,1.82
2023-02-08T11:16:34.076Z,1.99
2023-02-08T11:21:57.070Z,2.15
2023-02-08T11:27:29.495Z,2.32
2023-02-08T11:33:19.730Z,2.44
2023-02-08T11:38:42.636Z,2.51
2023-02-08T11:44:07.132Z,2.59
2023-02-08T11:49:40.665Z,2.66
2023-02-08T11:55:38.075Z,2.77
2023-02-08T12:01:18.658Z,2.96
2023-02-08T12:06:54.373Z,3.12
2023-02-08T12:12:42.680Z,3.31
2023-02-08T12:18:16.732Z,3.52
2023-02-08T12:23:49.227Z,3.65
2023-02-08T12:29:45.679Z,3.89
2023-02-08T12:35:57.599Z,3.99
2023-02-08T12:41:23.210Z,4.14
2023-02-08T12:47:06.805Z,4.24
2023-02-08T12:52:37.684Z,4.38
2023-02-08T12:58:25.619Z,4.65
2023-02-08T13:03:57.245Z,4.73
2023-02-08T13:09:35.707Z,4.87
2023-02-08T13:15:30.954Z,4.80
2023-02-08T13:21:05.420Z,4.75
2023-02-08T13:26:33.266Z,4.68
2023-02-08T13:32:30.697Z,4.74
2023-02-08T13:37:59.890Z,4.61
2023-02-08T13:43:35.612Z,4.66
2023-02-08T13:49:00.348Z,4.75
2023-02-08T13:54:23.710Z,4.87
2023-02-08T14:00:21.480Z,4.82
2023-02-08T14:05:57.196Z,4.75
2023-02-08T14:11:37.218Z,4.76
2023-02-08T14:17:04.733Z,4.77
2023-02-08T14:22:33.756Z,4.83
2023-02-08T14:28:02.545Z,4.90
2023-02-08T14:33:32.027Z,4.92
2023-02-08T14:39:23.622Z,4.94
2023-02-08T14:44:48.883Z,4.84
2023-02-08T14:50:20.447Z,4.81
2023-02-08T14:55:52.067Z,4.83
2023-02-08T15:01:18.649Z,4.67
2023-02-08T15:07:07.534Z,4.74
2023-02-08T15:12:32.954Z,4.69
2023-02-08T15:17:55.610Z,4.63
2023-02-08T15:23:23.570Z,4.61
2023-02-08T15:28:45.546Z,4.50
2023-02-08T15:34:11.405Z,4.44
2023-02-08T15:39:41.458Z,4.36
2023-02-08T15:45:04.453Z,4.27
2023-02-08T15:50:27.699Z,4.25
2023-02-08T15:55:53.727Z,4.14
2023-02-08T16:01:20.808Z,4.11
2023-02-08T16:06:53.247Z,3.95
2023-02-08T16:12:21.675Z,3.75
2023-02-08T16:17:45.707Z,3.60
2023-02-08T16:23:31.225Z,3.55
2023-02-08T16:29:19.000Z,3.38
2023-02-08T16:34:41.118Z,3.16
2023-02-08T16:40:06.608Z,3.14
2023-02-08T16:45:28.392Z,2.96
2023-02-08T16:50:50.122Z,2.81
2023-02-08T16:56:11.897Z,2.71
2023-02-08T17:01:34.001Z,2.65
2023-02-08T17:06:55.832Z,2.72
2023-02-08T17:12:22.836Z,2.52
2023-02-08T17:17:44.835Z,2.34
2023-02-08T17:23:07.020Z,2.22
2023-02-08T17:28:28.838Z,2.28
2023-02-08T17:33:50.602Z,2.10
2023-02-08T17:39:13.686Z,2.02
2023-02-08T17:44:35.428Z,2.01
2023-02-08T17:49:57.498Z,2.03
2023-02-08T17:55:19.613Z,1.96
2023-02-08T18:00:41.364Z,1.95
2023-02-08T18:06:05.940Z,1.98
2023-02-08T18:11:27.776Z,1.94
2023-02-08T18:16:49.533Z,1.92
2023-02-08T18:22:11.271Z,1.71
2023-02-08T18:27:33.286Z,1.71
2023-02-08T18:32:55.023Z,1.79
2023-02-08T18:38:16.789Z,1.81
2023-02-08T18:43:39.213Z,1.70
2023-02-08T18:49:00.967Z,1.56
2023-02-08T18:54:23.029Z,1.46
2023-02-08T18:59:44.749Z,1.53
2023-02-08T19:05:06.793Z,1.57
2023-02-08T19:10:28.515Z,1.55
2023-02-08T19:15:51.319Z,1.41
2023-02-08T19:21:15.113Z,1.35
2023-02-08T19:26:39.877Z,1.43
2023-02-08T19:32:01.716Z,1.47
2023-02-08T19:37:23.583Z,1.25
2023-02-08T19:42:45.973Z,1.18
2023-02-08T19:48:08.597Z,1.27
2023-02-08T19:53:30.624Z,1.18
2023-02-08T19:58:52.465Z,1.06
2023-02-08T20:04:14.567Z,0.90
2023-02-08T20:09:37.113Z,0.88
2023-02-08T20:14:58.929Z,0.88
2023-02-08T20:20:21.345Z,0.84
2023-02-08T20:25:43.371Z,0.78
2023-02-08T20:31:15.472Z,0.88
2023-02-08T20:36:40.525Z,0.84
2023-02-08T20:42:02.553Z,0.77
2023-02-08T20:47:24.487Z,0.87
2023-02-08T20:52:46.762Z,0.69
2023-02-08T20:58:08.597Z,0.53
2023-02-08T21:03:30.298Z,0.58
2023-02-08T21:08:52.603Z,0.53
2023-02-08T21:14:20.673Z,0.54
2023-02-08T21:19:42.631Z,0.61
2023-02-08T21:25:04.407Z,0.53
2023-02-08T21:30:26.200Z,0.33
2023-02-08T21:35:48.043Z,0.29
2023-02-08T21:41:21.696Z,0.39
2023-02-08T21:46:43.412Z,0.33
2023-02-08T21:52:23.745Z,0.35
2023-02-08T21:57:45.592Z,0.32
2023-02-08T22:03:07.454Z,0.38
2023-02-08T22:08:29.176Z,0.26
2023-02-08T22:13:50.863Z,0.32
2023-02-08T22:19:12.581Z,0.31
2023-02-08T22:24:35.408Z,0.19
2023-02-08T22:29:57.526Z,0.31
2023-02-08T22:35:19.367Z,0.05
2023-02-08T22:40:42.391Z,-0.22
2023-02-08T22:46:04.535Z,-0.13
2023-02-08T22:51:26.313Z,-0.07
2023-02-08T22:56:48.023Z,-0.19
2023-02-08T23:02:09.771Z,-0.13
2023-02-08T23:07:31.593Z,-0.08
2023-02-08T23:12:53.303Z,-0.02
2023-02-08T23:18:15.009Z,-0.12
2023-02-08T23:23:36.831Z,-0.16
2023-02-08T23:28:58.678Z,-0.25
2023-02-08T23:34:20.431Z,-0.25
2023-02-08T23:39:42.146Z,-0.46
2023-02-08T23:45:04.490Z,-0.50
2023-02-08T23:50:26.421Z,-0.66
2023-02-08T23:55:48.121Z,-0.75
